Time;durP1;ratioP1;P1;durP2;ratioP2;P2;SDS_P1;SDS_P2;PMS_P1;PMS_P2;Temp;Humidity;BMP_temperature;BMP_pressure;BME280_temperature;BME280_humidity;BME280_pressure;Samples;Min_cycle;Max_cycle;Signal;HPM_P1;HPM_P2
2021/04/13 00:01:11;;;;;;;0.30;0.30;;;2.70;99.90;;;;;;4981596;28;20188;-80
2021/04/13 00:04:05;;;;;;;0.00;0.00;;;2.70;99.90;;;;;;4995162;28;20191;-80
2021/04/13 00:06:58;;;;;;;0.20;0.20;;;2.70;99.90;;;;;;4977760;28;20201;-79
2021/04/13 00:09:28;;;;;;;0.20;0.20;;;2.80;99.90;;;;;;4992848;28;20184;-79
2021/04/13 00:12:09;;;;;;;0.23;0.20;;;2.90;99.90;;;;;;4980167;28;20614;-79
2021/04/13 00:14:38;;;;;;;0.10;0.10;;;2.90;99.90;;;;;;4994273;28;20240;-80
2021/04/13 00:17:11;;;;;;;0.23;0.23;;;2.90;99.90;;;;;;4976414;28;20239;-80
2021/04/13 00:19:57;;;;;;;0.17;0.17;;;2.90;99.90;;;;;;4991808;28;20282;-80
2021/04/13 00:22:23;;;;;;;0.63;0.10;;;2.80;99.90;;;;;;4993467;28;20184;-79
2021/04/13 00:24:51;;;;;;;0.20;0.13;;;2.70;99.90;;;;;;4975161;28;20212;-79
2021/04/13 00:27:20;;;;;;;0.27;0.27;;;2.80;99.90;;;;;;4974241;28;20238;-80
2021/04/13 00:29:46;;;;;;;0.10;0.10;;;2.90;99.90;;;;;;4976695;28;20188;-79
2021/04/13 00:32:12;;;;;;;0.13;0.13;;;2.80;99.90;;;;;;4976027;28;20253;-80
2021/04/13 00:37:12;;;;;;;0.50;0.50;;;2.50;99.90;;;;;;4992197;28;20188;-80
2021/04/13 00:39:39;;;;;;;0.63;0.63;;;2.60;99.90;;;;;;4986458;28;20219;-79
2021/04/13 00:42:09;;;;;;;0.33;0.33;;;2.60;99.90;;;;;;4976079;28;20194;-79
2021/04/13 00:44:46;;;;;;;0.40;0.30;;;2.60;99.90;;;;;;4969147;28;20181;-79
2021/04/13 00:47:27;;;;;;;0.73;0.73;;;2.60;99.90;;;;;;4994529;28;20210;-80
2021/04/13 00:50:00;;;;;;;0.10;0.10;;;2.70;99.90;;;;;;4970932;28;20187;-79
2021/04/13 00:52:40;;;;;;;0.27;0.27;;;2.70;99.90;;;;;;4993220;28;20188;-79
2021/04/13 00:55:12;;;;;;;0.10;0.10;;;2.80;99.90;;;;;;4967886;28;20627;-79
2021/04/13 00:57:58;;;;;;;0.60;0.60;;;2.70;99.90;;;;;;4976666;28;20274;-79
2021/04/13 01:00:31;;;;;;;0.30;0.30;;;2.60;99.90;;;;;;4974592;28;20679;-79
2021/04/13 01:03:02;;;;;;;0.20;0.20;;;2.60;99.90;;;;;;4991405;28;20190;-79
2021/04/13 01:05:41;;;;;;;0.10;0.10;;;2.60;99.90;;;;;;4992422;28;20294;-80
2021/04/13 01:08:21;;;;;;;0.60;0.37;;;2.60;99.90;;;;;;4972393;28;20600;-79
2021/04/13 01:10:47;;;;;;;0.00;0.00;;;2.70;99.90;;;;;;4976485;28;20630;-79
2021/04/13 01:13:21;;;;;;;0.30;0.30;;;2.60;99.90;;;;;;4974847;28;20211;-80
2021/04/13 01:15:50;;;;;;;0.10;0.10;;;2.60;99.90;;;;;;4966488;28;20781;-79
2021/04/13 01:18:24;;;;;;;0.10;0.10;;;2.60;99.90;;;;;;4992876;28;20214;-79
2021/04/13 01:21:09;;;;;;;0.10;0.10;;;2.50;99.90;;;;;;4973567;28;20664;-80
2021/04/13 01:24:00;;;;;;;0.10;0.10;;;2.50;99.90;;;;;;4975759;28;20186;-80
2021/04/13 01:26:35;;;;;;;0.73;0.70;;;2.50;99.90;;;;;;4992576;28;20693;-79
2021/04/13 01:29:01;;;;;;;0.10;0.10;;;2.50;99.90;;;;;;4983793;28;20199;-80
2021/04/13 01:31:49;;;;;;;0.60;0.40;;;2.50;99.90;;;;;;4974408;28;20277;-79
2021/04/13 01:34:42;;;;;;;0.20;0.20;;;2.50;99.90;;;;;;4974745;28;20408;-79
2021/04/13 01:37:20;;;;;;;0.10;0.10;;;2.50;99.90;;;;;;4986744;28;20176;-81
2021/04/13 01:40:00;;;;;;;0.10;0.10;;;2.50;99.90;;;;;;4977371;28;20216;-79
2021/04/13 01:42:28;;;;;;;0.30;0.30;;;2.60;99.90;;;;;;4964068;28;20264;-79
2021/04/13 01:45:00;;;;;;;0.20;0.20;;;2.50;99.90;;;;;;4973677;28;20218;-80
2021/04/13 01:47:26;;;;;;;0.20;0.20;;;2.60;99.90;;;;;;4975063;28;20306;-79
2021/04/13 01:49:55;;;;;;;0.73;0.50;;;2.60;99.90;;;;;;4971538;28;20717;-79
2021/04/13 01:52:33;;;;;;;0.10;0.10;;;2.60;99.90;;;;;;4986134;28;20187;-80
2021/04/13 01:55:16;;;;;;;0.10;0.10;;;2.50;99.90;;;;;;4968639;28;20204;-80
2021/04/13 01:58:00;;;;;;;0.40;0.40;;;2.50;99.90;;;;;;4975202;28;20195;-79
2021/04/13 02:00:52;;;;;;;0.37;0.37;;;2.50;99.90;;;;;;4972768;28;20229;-78
2021/04/13 02:03:35;;;;;;;0.07;0.07;;;2.40;99.90;;;;;;4978362;28;20229;-80
2021/04/13 02:06:08;;;;;;;0.20;0.20;;;2.40;99.90;;;;;;4975634;28;20260;-79
2021/04/13 02:08:41;;;;;;;0.50;0.50;;;2.40;99.90;;;;;;4974792;28;20203;-79
2021/04/13 02:11:12;;;;;;;0.23;0.23;;;2.30;99.90;;;;;;4971799;28;20279;-79
2021/04/13 02:13:46;;;;;;;0.77;0.77;;;2.30;99.90;;;;;;4993274;28;20657;-79
2021/04/13 02:16:19;;;;;;;0.33;0.33;;;2.20;99.90;;;;;;4975144;28;20212;-79
2021/04/13 02:18:47;;;;;;;0.10;0.10;;;2.20;99.90;;;;;;4973487;28;20217;-80
2021/04/13 02:21:36;;;;;;;0.33;0.33;;;2.20;99.90;;;;;;4965617;28;20180;-78
2021/04/13 02:24:11;;;;;;;0.43;0.43;;;2.20;99.90;;;;;;4990466;28;20290;-79
2021/04/13 02:26:48;;;;;;;0.20;0.20;;;2.20;99.90;;;;;;4972268;28;20230;-79
2021/04/13 02:29:17;;;;;;;0.97;0.47;;;2.20;99.90;;;;;;4966618;28;20184;-79
2021/04/13 02:31:49;;;;;;;0.53;0.53;;;2.10;99.90;;;;;;4989794;28;20189;-80
2021/04/13 02:34:36;;;;;;;0.10;0.10;;;2.00;99.90;;;;;;4968892;28;20185;-78
2021/04/13 02:37:26;;;;;;;0.10;0.10;;;2.10;99.90;;;;;;4974193;28;20190;-79
2021/04/13 02:39:54;;;;;;;0.33;0.33;;;2.20;99.90;;;;;;4985084;28;20223;-79
2021/04/13 02:42:26;;;;;;;0.50;0.43;;;2.10;99.90;;;;;;4990214;28;20895;-80
2021/04/13 02:45:03;;;;;;;0.47;0.30;;;2.20;99.90;;;;;;4977139;28;20196;-78
2021/04/13 02:47:30;;;;;;;1.60;0.20;;;2.10;99.90;;;;;;4986773;28;20182;-79
2021/04/13 02:50:00;;;;;;;0.50;0.33;;;2.00;99.90;;;;;;4989026;28;20183;-79
2021/04/13 02:52:41;;;;;;;0.23;0.23;;;1.90;99.90;;;;;;4991446;28;20192;-79
2021/04/13 02:55:09;;;;;;;0.07;0.07;;;1.90;99.90;;;;;;4975177;28;20302;-79
2021/04/13 02:57:41;;;;;;;0.33;0.33;;;2.00;99.90;;;;;;4974328;28;20192;-79
2021/04/13 03:00:32;;;;;;;0.10;0.10;;;2.00;99.90;;;;;;4971816;28;20188;-80
2021/04/13 03:03:06;;;;;;;0.40;0.40;;;2.00;99.90;;;;;;4988255;28;20275;-80
2021/04/13 03:05:33;;;;;;;0.67;0.40;;;2.10;99.90;;;;;;4973617;28;20207;-81
2021/04/13 03:08:04;;;;;;;0.40;0.30;;;2.10;99.90;;;;;;4969904;28;20239;-82
2021/04/13 03:10:33;;;;;;;0.40;0.40;;;2.10;99.90;;;;;;4966063;28;20190;-80
2021/04/13 03:13:05;;;;;;;0.20;0.20;;;2.10;99.90;;;;;;4961837;28;20188;-79
2021/04/13 03:15:33;;;;;;;0.60;0.53;;;2.00;99.90;;;;;;4959996;28;20218;-80
2021/04/13 03:18:02;;;;;;;1.90;0.80;;;1.90;99.90;;;;;;4973050;28;20210;-80
2021/04/13 03:20:34;;;;;;;0.10;0.10;;;1.70;99.90;;;;;;4986690;28;20199;-80
2021/04/13 03:23:02;;;;;;;0.00;0.00;;;1.70;99.90;;;;;;4970869;28;20218;-81
2021/04/13 03:25:35;;;;;;;0.10;0.10;;;1.60;99.90;;;;;;4990532;28;20296;-80
2021/04/13 03:28:05;;;;;;;0.20;0.20;;;1.60;99.90;;;;;;4990902;28;20188;-78
2021/04/13 03:30:35;;;;;;;0.30;0.30;;;1.50;99.90;;;;;;4988496;28;20675;-80
2021/04/13 03:33:28;;;;;;;0.37;0.37;;;1.50;99.90;;;;;;4989064;28;20197;-80
2021/04/13 03:36:04;;;;;;;0.10;0.10;;;1.50;99.90;;;;;;4969884;28;20199;-80
2021/04/13 03:38:31;;;;;;;1.13;0.37;;;1.50;99.90;;;;;;4990093;28;20251;-79
2021/04/13 03:40:57;;;;;;;0.10;0.10;;;1.40;99.90;;;;;;4990108;28;20692;-80
2021/04/13 03:43:26;;;;;;;0.37;0.37;;;1.50;99.90;;;;;;4972468;28;20266;-80
2021/04/13 03:46:00;;;;;;;0.10;0.10;;;1.50;99.90;;;;;;4972838;28;20235;-80
2021/04/13 03:48:28;;;;;;;0.37;0.37;;;1.50;99.90;;;;;;4972807;28;20205;-78
2021/04/13 03:51:28;;;;;;;0.20;0.20;;;1.60;99.90;;;;;;4989595;28;20260;-80
2021/04/13 03:53:54;;;;;;;0.07;0.07;;;1.60;99.90;;;;;;4964932;28;20192;-80
2021/04/13 03:56:22;;;;;;;0.30;0.30;;;1.60;99.90;;;;;;4969815;28;20208;-80
2021/04/13 03:58:51;;;;;;;0.17;0.17;;;1.60;99.90;;;;;;4978904;28;20205;-79
2021/04/13 04:01:20;;;;;;;0.23;0.23;;;1.60;99.90;;;;;;4988287;28;20255;-80
2021/04/13 04:04:00;;;;;;;0.00;0.00;;;1.60;99.90;;;;;;4989218;28;20187;-80
2021/04/13 04:06:46;;;;;;;0.10;0.10;;;1.70;99.90;;;;;;4976070;28;21141;-79
2021/04/13 04:09:19;;;;;;;0.10;0.10;;;1.70;99.90;;;;;;4966744;28;20184;-79
2021/04/13 04:11:46;;;;;;;0.47;0.40;;;1.60;99.90;;;;;;4987865;28;20208;-80
2021/04/13 04:14:21;;;;;;;0.23;0.23;;;1.60;99.90;;;;;;4970105;28;20322;-79
2021/04/13 04:16:48;;;;;;;0.27;0.23;;;1.60;99.90;;;;;;4976940;28;20206;-80
2021/04/13 04:19:24;;;;;;;0.83;0.57;;;1.40;99.90;;;;;;4993529;28;20294;-80
2021/04/13 04:22:02;;;;;;;1.40;0.47;;;1.30;99.90;;;;;;4972215;28;20254;-79
2021/04/13 04:24:36;;;;;;;0.50;0.50;;;1.40;99.90;;;;;;4990265;28;20184;-80
2021/04/13 04:27:16;;;;;;;0.23;0.20;;;1.40;99.90;;;;;;4982211;28;20728;-81
2021/04/13 04:30:03;;;;;;;1.07;0.50;;;1.50;99.90;;;;;;4976967;28;20269;-80
2021/04/13 04:32:28;;;;;;;0.70;0.70;;;1.50;99.90;;;;;;4986124;28;20225;-79
2021/04/13 04:34:57;;;;;;;0.50;0.40;;;1.40;99.90;;;;;;4971967;28;20678;-80
2021/04/13 04:37:29;;;;;;;0.60;0.60;;;1.10;99.90;;;;;;4992645;28;20191;-80
2021/04/13 04:40:13;;;;;;;0.47;0.47;;;1.20;99.90;;;;;;4976607;28;20581;-80
2021/04/13 04:43:00;;;;;;;0.43;0.37;;;1.30;99.90;;;;;;4991138;28;20263;-78
2021/04/13 04:45:46;;;;;;;0.20;0.20;;;1.40;99.90;;;;;;4987917;28;20689;-82
2021/04/13 04:48:41;;;;;;;0.30;0.30;;;1.40;99.90;;;;;;4991301;28;20191;-82
2021/04/13 04:51:10;;;;;;;0.70;0.70;;;1.20;99.90;;;;;;4962752;28;20289;-83
2021/04/13 04:53:36;;;;;;;0.33;0.33;;;1.30;99.90;;;;;;4975394;28;20598;-77
2021/04/13 04:56:07;;;;;;;0.40;0.40;;;1.30;99.90;;;;;;4976312;28;20207;-79
2021/04/13 04:58:34;;;;;;;1.30;0.80;;;1.50;99.90;;;;;;4975488;28;20563;-79
2021/04/13 05:01:00;;;;;;;0.43;0.43;;;1.60;99.90;;;;;;4972488;28;20212;-77
2021/04/13 05:03:28;;;;;;;0.63;0.43;;;1.60;99.90;;;;;;4975624;28;20211;-79
2021/04/13 05:05:55;;;;;;;0.57;0.57;;;1.60;99.90;;;;;;4993561;28;20207;-78
2021/04/13 05:08:22;;;;;;;0.57;0.57;;;1.80;99.90;;;;;;4973914;28;20212;-79
2021/04/13 05:10:49;;;;;;;1.17;1.03;;;1.80;99.90;;;;;;4974009;28;20282;-78
2021/04/13 05:13:15;;;;;;;0.40;0.40;;;1.90;99.90;;;;;;4991718;28;20666;-82
2021/04/13 05:15:41;;;;;;;0.27;0.27;;;2.10;99.90;;;;;;4974469;28;20241;-83
2021/04/13 05:18:07;;;;;;;0.20;0.20;;;2.20;99.90;;;;;;4976806;28;20664;-82
2021/04/13 05:20:32;;;;;;;0.30;0.30;;;2.30;99.90;;;;;;4991345;28;20228;-82
2021/04/13 05:23:00;;;;;;;0.50;0.50;;;2.50;99.90;;;;;;4975538;28;20199;-81
2021/04/13 05:25:26;;;;;;;0.20;0.20;;;2.60;99.90;;;;;;4992455;28;20227;-82
2021/04/13 05:27:51;;;;;;;0.70;0.20;;;2.70;99.90;;;;;;4971764;28;20219;-82
2021/04/13 05:30:18;;;;;;;0.20;0.20;;;2.80;99.90;;;;;;4970612;28;20178;-77
2021/04/13 05:32:44;;;;;;;0.30;0.30;;;2.90;99.90;;;;;;4973911;28;20194;-80
2021/04/13 05:35:11;;;;;;;0.47;0.47;;;3.10;99.90;;;;;;4974862;28;20209;-80
2021/04/13 05:37:37;;;;;;;0.30;0.30;;;3.20;99.90;;;;;;4972791;28;20189;-79
2021/04/13 05:40:05;;;;;;;0.40;0.40;;;3.20;99.90;;;;;;4974858;28;20284;-79
2021/04/13 05:42:32;;;;;;;0.50;0.40;;;3.20;99.90;;;;;;4984989;28;20243;-78
2021/04/13 05:44:58;;;;;;;1.70;0.57;;;3.40;99.90;;;;;;4971075;28;20208;-79
2021/04/13 05:47:26;;;;;;;0.53;0.53;;;3.40;99.90;;;;;;4971733;28;20654;-78
2021/04/13 05:49:52;;;;;;;1.70;0.60;;;3.50;99.90;;;;;;4975707;28;20190;-79
2021/04/13 05:52:17;;;;;;;0.30;0.30;;;3.60;99.90;;;;;;4968787;28;20191;-77
2021/04/13 05:54:43;;;;;;;0.70;0.70;;;3.60;99.90;;;;;;4969774;28;20197;-79
2021/04/13 05:57:12;;;;;;;0.27;0.27;;;3.70;99.90;;;;;;4974228;28;20180;-79
2021/04/13 05:59:38;;;;;;;0.30;0.30;;;3.70;99.90;;;;;;4973827;28;20200;-79
2021/04/13 06:02:04;;;;;;;0.47;0.47;;;3.80;99.90;;;;;;4971526;28;20191;-79
2021/04/13 06:04:30;;;;;;;1.20;0.70;;;3.90;99.90;;;;;;4980996;28;20193;-77
2021/04/13 06:06:56;;;;;;;1.13;0.30;;;4.00;99.90;;;;;;4984642;28;20291;-79
2021/04/13 06:09:22;;;;;;;0.70;0.70;;;4.20;99.90;;;;;;4986719;28;20272;-79
2021/04/13 06:11:48;;;;;;;0.10;0.10;;;4.30;99.90;;;;;;4988883;28;20193;-78
2021/04/13 06:14:15;;;;;;;0.67;0.10;;;4.40;99.90;;;;;;4973510;28;20176;-79
2021/04/13 06:16:43;;;;;;;0.40;0.40;;;4.60;99.90;;;;;;4973723;28;20575;-78
2021/04/13 06:19:08;;;;;;;0.10;0.10;;;4.40;99.90;;;;;;4986996;28;20218;-79
2021/04/13 06:21:34;;;;;;;2.73;0.80;;;4.60;99.90;;;;;;4969277;28;20187;-79
2021/04/13 06:24:00;;;;;;;0.47;0.47;;;4.90;99.90;;;;;;4984352;28;20288;-78
2021/04/13 06:26:27;;;;;;;1.80;0.43;;;5.10;99.90;;;;;;4971100;28;20643;-79
2021/04/13 06:28:52;;;;;;;0.47;0.47;;;4.80;99.90;;;;;;4989588;28;20269;-79
2021/04/13 06:31:18;;;;;;;0.57;0.57;;;5.10;99.90;;;;;;4989775;28;20279;-79
2021/04/13 06:33:44;;;;;;;1.80;1.70;;;5.30;99.90;;;;;;4973805;28;20209;-79
2021/04/13 06:36:14;;;;;;;0.27;0.20;;;5.50;99.90;;;;;;4974148;28;20695;-79
2021/04/13 06:38:39;;;;;;;0.73;0.73;;;5.60;99.90;;;;;;4975955;28;20213;-79
2021/04/13 06:41:42;;;;;;;2.03;1.13;;;5.30;99.90;;;;;;4991646;28;20182;-78
2021/04/13 06:44:19;;;;;;;0.60;0.60;;;5.50;99.90;;;;;;4990888;28;20186;-79
2021/04/13 06:47:06;;;;;;;1.33;0.90;;;4.90;99.90;;;;;;4974426;28;20208;-78
2021/04/13 06:49:50;;;;;;;0.43;0.43;;;5.30;99.90;;;;;;4984966;28;20658;-79
2021/04/13 06:52:39;;;;;;;0.53;0.47;;;5.60;99.90;;;;;;4972872;28;20770;-79
2021/04/13 06:55:36;;;;;;;0.70;0.43;;;5.80;99.90;;;;;;4987560;28;20211;-78
2021/04/13 06:58:08;;;;;;;1.23;0.63;;;5.20;99.90;;;;;;4972936;28;20891;-79
2021/04/13 07:00:48;;;;;;;1.50;0.40;;;5.50;99.90;;;;;;4985610;28;20186;-79
2021/04/13 07:03:52;;;;;;;2.40;0.40;;;5.40;99.90;;;;;;4988890;28;21441;-78
2021/04/13 07:06:25;;;;;;;0.40;0.40;;;5.40;99.90;;;;;;4936993;28;20710;-83
2021/04/13 07:08:58;;;;;;;0.37;0.37;;;5.60;99.90;;;;;;4970691;28;20205;-80
2021/04/13 07:12:08;;;;;;;1.23;0.50;;;5.70;99.90;;;;;;4989062;28;20275;-78
2021/04/13 07:15:01;;;;;;;0.27;0.27;;;6.10;99.90;;;;;;4931747;29;20247;-80
2021/04/13 07:17:45;;;;;;;0.63;0.37;;;6.40;99.90;;;;;;4993257;28;20176;-80
2021/04/13 07:20:28;;;;;;;0.30;0.30;;;6.10;99.90;;;;;;4975263;28;20225;-80
2021/04/13 07:23:05;;;;;;;0.80;0.73;;;6.00;99.90;;;;;;4973854;28;20176;-80
2021/04/13 07:25:55;;;;;;;0.90;0.60;;;6.20;99.90;;;;;;4992642;28;20210;-80
2021/04/13 07:28:30;;;;;;;0.33;0.33;;;6.30;99.90;;;;;;4984946;28;20196;-80
2021/04/13 07:31:03;;;;;;;0.97;0.20;;;6.10;99.90;;;;;;4963024;28;20675;-78
2021/04/13 07:33:32;;;;;;;0.10;0.10;;;6.00;99.90;;;;;;4992358;28;20178;-80
2021/04/13 07:36:03;;;;;;;0.30;0.30;;;6.00;99.90;;;;;;4975317;28;20301;-80
2021/04/13 07:38:42;;;;;;;0.67;0.40;;;5.80;99.90;;;;;;4986782;28;20211;-79
2021/04/13 07:41:34;;;;;;;0.13;0.10;;;5.90;99.90;;;;;;4973947;28;20234;-80
2021/04/13 07:44:07;;;;;;;0.10;0.10;;;5.90;99.90;;;;;;4981305;28;20214;-80
2021/04/13 07:46:48;;;;;;;1.20;1.10;;;6.00;99.90;;;;;;4976472;28;20258;-80
2021/04/13 07:49:26;;;;;;;0.53;0.30;;;5.90;99.90;;;;;;4974813;28;20187;-80
2021/04/13 07:52:04;;;;;;;0.23;0.23;;;6.10;99.90;;;;;;4994903;28;20195;-80
2021/04/13 07:54:52;;;;;;;1.60;0.57;;;6.10;99.90;;;;;;4978006;28;20213;-80
2021/04/13 07:57:43;;;;;;;0.77;0.47;;;6.30;99.90;;;;;;4980958;28;20222;-78
2021/04/13 08:00:31;;;;;;;1.60;0.50;;;6.20;99.90;;;;;;4977852;28;20228;-81
2021/04/13 08:03:14;;;;;;;0.73;0.63;;;6.50;99.90;;;;;;4976914;28;20184;-80
2021/04/13 08:05:45;;;;;;;0.57;0.57;;;6.50;99.90;;;;;;4976351;28;20262;-81
2021/04/13 08:08:34;;;;;;;0.23;0.23;;;6.70;99.90;;;;;;4990633;28;20282;-81
2021/04/13 08:11:20;;;;;;;1.30;0.37;;;6.40;99.90;;;;;;4992177;28;20215;-80
2021/04/13 08:13:52;;;;;;;0.20;0.20;;;6.60;99.90;;;;;;4992924;28;20319;-79
2021/04/13 08:16:34;;;;;;;0.07;0.07;;;6.60;99.90;;;;;;4975307;28;20266;-80
2021/04/13 08:19:26;;;;;;;0.20;0.20;;;6.70;99.90;;;;;;4976755;28;20297;-79
2021/04/13 08:22:11;;;;;;;0.33;0.33;;;6.90;99.90;;;;;;4993203;28;20267;-80
2021/04/13 08:24:47;;;;;;;0.20;0.20;;;7.00;99.90;;;;;;4978221;28;20586;-78
2021/04/13 08:27:29;;;;;;;0.27;0.27;;;7.10;99.90;;;;;;4977592;28;20206;-79
2021/04/13 08:30:05;;;;;;;0.47;0.47;;;7.00;99.90;;;;;;4994093;28;20190;-80
2021/04/13 08:33:02;;;;;;;0.10;0.10;;;6.90;99.90;;;;;;4992519;28;20206;-80
2021/04/13 08:35:36;;;;;;;2.23;0.30;;;6.50;99.90;;;;;;4993836;28;20316;-80
2021/04/13 08:38:17;;;;;;;0.10;0.10;;;6.40;99.90;;;;;;4975142;28;20539;-80
2021/04/13 08:40:57;;;;;;;0.70;0.47;;;6.50;99.90;;;;;;4991746;28;20194;-78
2021/04/13 08:43:32;;;;;;;2.17;0.30;;;6.90;99.90;;;;;;4994304;28;20871;-80
2021/04/13 08:46:30;;;;;;;0.20;0.20;;;6.80;99.90;;;;;;4977038;28;20571;-81
2021/04/13 08:49:02;;;;;;;0.83;0.30;;;7.40;99.90;;;;;;4974772;28;20657;-81
2021/04/13 08:51:47;;;;;;;0.10;0.10;;;7.50;99.90;;;;;;4975887;28;20188;-80
2021/04/13 08:54:19;;;;;;;0.40;0.40;;;7.70;99.90;;;;;;4994924;28;20175;-80
2021/04/13 08:57:07;;;;;;;0.20;0.20;;;7.70;99.90;;;;;;4993873;28;20224;-81
2021/04/13 08:59:42;;;;;;;0.20;0.20;;;6.90;99.90;;;;;;4991612;28;20220;-82
2021/04/13 09:02:20;;;;;;;0.67;0.67;;;7.20;99.90;;;;;;4975640;28;20262;-81
2021/04/13 09:04:45;;;;;;;0.20;0.20;;;7.50;99.90;;;;;;4991276;28;20184;-79
2021/04/13 09:07:26;;;;;;;2.20;0.87;;;7.50;99.90;;;;;;4989441;28;20195;-81
2021/04/13 09:10:12;;;;;;;0.40;0.40;;;7.20;99.90;;;;;;4972352;28;20278;-81
2021/04/13 09:12:41;;;;;;;0.10;0.10;;;7.30;99.90;;;;;;4966017;28;20271;-80
2021/04/13 09:15:21;;;;;;;0.40;0.40;;;7.40;99.90;;;;;;4973226;28;20214;-80
2021/04/13 09:18:14;;;;;;;0.10;0.10;;;7.20;99.90;;;;;;4971064;28;20271;-80
2021/04/13 09:20:44;;;;;;;0.33;0.10;;;7.10;99.90;;;;;;4982042;28;20187;-80
2021/04/13 09:23:25;;;;;;;0.70;0.57;;;7.30;99.90;;;;;;4992554;28;20267;-80
2021/04/13 09:25:51;;;;;;;0.00;0.00;;;7.20;99.90;;;;;;4996451;28;20216;-81
2021/04/13 09:28:39;;;;;;;0.27;0.23;;;7.00;99.90;;;;;;4993575;28;20183;-80
2021/04/13 09:31:09;;;;;;;0.20;0.20;;;7.20;99.90;;;;;;4977313;28;20176;-81
2021/04/13 09:33:41;;;;;;;0.50;0.10;;;7.40;99.90;;;;;;4975132;28;20568;-80
2021/04/13 09:36:15;;;;;;;0.27;0.27;;;7.20;99.90;;;;;;4977147;28;20206;-80
2021/04/13 09:38:59;;;;;;;0.63;0.20;;;7.30;99.90;;;;;;4989374;28;20219;-81
2021/04/13 09:41:52;;;;;;;0.13;0.13;;;7.90;99.90;;;;;;4977414;28;20176;-81
2021/04/13 09:44:30;;;;;;;0.00;0.00;;;8.40;99.90;;;;;;4977380;28;20543;-81
2021/04/13 09:47:03;;;;;;;0.10;0.10;;;8.60;99.90;;;;;;4994021;28;20211;-81
2021/04/13 09:49:50;;;;;;;0.20;0.20;;;8.30;99.90;;;;;;4992126;28;20192;-80
2021/04/13 09:52:18;;;;;;;0.07;0.07;;;8.20;99.90;;;;;;4990459;28;20191;-79
2021/04/13 09:54:52;;;;;;;0.30;0.30;;;8.70;99.90;;;;;;4973254;28;20184;-80
2021/04/13 09:57:29;;;;;;;0.00;0.00;;;8.80;99.90;;;;;;4987406;28;20192;-80
2021/04/13 10:00:24;;;;;;;0.23;0.13;;;8.70;99.90;;;;;;4977018;28;20211;-79
2021/04/13 10:03:14;;;;;;;0.10;0.10;;;8.80;99.90;;;;;;4974581;28;20551;-80
2021/04/13 10:05:46;;;;;;;0.20;0.20;;;8.00;99.90;;;;;;4976119;28;20215;-80
2021/04/13 10:08:15;;;;;;;0.10;0.10;;;7.90;99.90;;;;;;4993265;28;20197;-80
2021/04/13 10:11:07;;;;;;;0.67;0.50;;;7.70;99.90;;;;;;4976793;28;20192;-80
2021/04/13 10:14:01;;;;;;;0.00;0.00;;;7.90;99.90;;;;;;4978474;28;20561;-80
2021/04/13 10:16:51;;;;;;;0.03;0.03;;;8.20;99.90;;;;;;4992119;28;20213;-79
2021/04/13 10:19:25;;;;;;;0.13;0.13;;;8.00;99.90;;;;;;4991982;28;20271;-81
2021/04/13 10:22:26;;;;;;;0.10;0.10;;;7.60;99.90;;;;;;4975587;28;20191;-81
2021/04/13 10:25:23;;;;;;;0.10;0.10;;;7.90;99.90;;;;;;4975538;28;20580;-79
2021/04/13 10:28:13;;;;;;;0.10;0.10;;;7.80;99.90;;;;;;4973831;28;20192;-80
2021/04/13 10:30:50;;;;;;;0.00;0.00;;;7.80;99.90;;;;;;4988389;28;20192;-81
2021/04/13 10:33:33;;;;;;;0.20;0.20;;;8.70;99.90;;;;;;4990888;28;20180;-81
2021/04/13 10:36:38;;;;;;;0.13;0.03;;;8.50;99.90;;;;;;4991648;28;20209;-81
2021/04/13 10:39:25;;;;;;;0.10;0.10;;;8.00;99.90;;;;;;4993188;28;20242;-81
2021/04/13 10:42:09;;;;;;;0.20;0.20;;;8.30;99.90;;;;;;4988821;28;20255;-80
2021/04/13 10:45:13;;;;;;;0.10;0.10;;;8.10;99.90;;;;;;4971350;28;20180;-81
2021/04/13 10:48:17;;;;;;;0.00;0.00;;;8.10;99.90;;;;;;4971960;28;20186;-81
2021/04/13 10:51:08;;;;;;;0.30;0.20;;;8.30;99.90;;;;;;4975203;28;20187;-81
2021/04/13 10:54:01;;;;;;;0.50;0.50;;;8.50;99.90;;;;;;4987965;28;20185;-81
2021/04/13 10:56:59;;;;;;;2.37;0.57;;;8.80;99.90;;;;;;4989745;28;20235;-81
2021/04/13 11:00:02;;;;;;;1.20;0.57;;;8.90;99.90;;;;;;4990350;28;20230;-81
2021/04/13 11:02:49;;;;;;;0.20;0.20;;;8.70;99.90;;;;;;4971436;28;20314;-81
2021/04/13 11:05:32;;;;;;;0.10;0.10;;;9.10;99.90;;;;;;4981694;28;20251;-81
2021/04/13 11:08:25;;;;;;;0.20;0.20;;;9.30;99.90;;;;;;4982941;28;20225;-81
2021/04/13 11:11:09;;;;;;;0.33;0.33;;;9.50;99.90;;;;;;4988818;28;20280;-81
2021/04/13 11:14:02;;;;;;;0.10;0.10;;;9.70;99.90;;;;;;4969966;28;20561;-81
2021/04/13 11:16:52;;;;;;;0.23;0.23;;;9.40;99.90;;;;;;4988525;28;20237;-84
2021/04/13 11:19:39;;;;;;;0.20;0.20;;;9.60;99.90;;;;;;4991958;28;20236;-80
2021/04/13 11:22:22;;;;;;;1.00;0.60;;;9.40;99.90;;;;;;4985478;28;20203;-80
2021/04/13 11:25:06;;;;;;;0.93;0.50;;;9.00;99.90;;;;;;4989929;28;20195;-80
2021/04/13 11:27:58;;;;;;;0.13;0.13;;;8.40;99.90;;;;;;4996014;28;20187;-80
2021/04/13 11:30:38;;;;;;;0.40;0.30;;;8.10;99.90;;;;;;4974147;28;20238;-80
2021/04/13 11:33:25;;;;;;;1.40;0.50;;;8.30;99.90;;;;;;4976094;28;20172;-80
2021/04/13 11:36:39;;;;;;;0.10;0.10;;;8.60;99.90;;;;;;4977216;28;20207;-80
2021/04/13 11:39:20;;;;;;;0.10;0.10;;;8.40;99.90;;;;;;4936064;29;20734;-80
2021/04/13 11:42:04;;;;;;;0.33;0.20;;;8.70;99.90;;;;;;4933478;29;20220;-80
2021/04/13 11:44:39;;;;;;;0.10;0.10;;;9.10;99.90;;;;;;4960622;28;20201;-80
2021/04/13 11:47:32;;;;;;;0.10;0.10;;;9.90;99.90;;;;;;4993464;28;20206;-80
2021/04/13 11:50:00;;;;;;;0.07;0.07;;;10.40;99.90;;;;;;4978905;28;20196;-81
2021/04/13 11:53:12;;;;;;;0.23;0.23;;;10.80;99.90;;;;;;4994619;28;20186;-81
2021/04/13 11:55:49;;;;;;;0.10;0.10;;;11.90;99.90;;;;;;4981835;28;20583;-81
2021/04/13 11:58:21;;;;;;;0.73;0.30;;;12.10;99.90;;;;;;4978406;28;20198;-81
2021/04/13 12:00:51;;;;;;;0.10;0.10;;;11.50;99.90;;;;;;4993327;28;20186;-81
2021/04/13 12:03:17;;;;;;;0.10;0.10;;;10.90;99.90;;;;;;4976553;28;20176;-80
2021/04/13 12:05:55;;;;;;;0.00;0.00;;;10.10;99.90;;;;;;4995707;28;20210;-81
2021/04/13 12:08:30;;;;;;;0.10;0.10;;;10.00;99.90;;;;;;4977769;28;20214;-81
2021/04/13 12:10:59;;;;;;;0.50;0.50;;;9.60;99.90;;;;;;4991503;28;20659;-81
2021/04/13 12:13:48;;;;;;;0.90;0.73;;;9.50;99.90;;;;;;4982667;28;20196;-81
2021/04/13 12:16:20;;;;;;;0.13;0.13;;;9.40;99.90;;;;;;4971093;28;20207;-80
2021/04/13 12:18:51;;;;;;;0.10;0.10;;;9.10;99.90;;;;;;4991584;28;20234;-80
2021/04/13 12:21:23;;;;;;;0.53;0.40;;;9.20;99.90;;;;;;4975485;28;20182;-81
2021/04/13 12:23:53;;;;;;;0.23;0.23;;;9.40;99.90;;;;;;4973761;28;20727;-82
2021/04/13 12:26:29;;;;;;;0.23;0.17;;;9.00;99.90;;;;;;4973587;28;20198;-81
2021/04/13 12:28:55;;;;;;;0.00;0.00;;;9.30;99.90;;;;;;4975604;28;20728;-82
2021/04/13 12:31:25;;;;;;;0.20;0.20;;;9.20;99.90;;;;;;4971046;28;20197;-81
2021/04/13 12:34:06;;;;;;;0.47;0.47;;;9.50;99.90;;;;;;4975800;28;20211;-81
2021/04/13 12:36:48;;;;;;;0.10;0.10;;;9.70;99.90;;;;;;4992386;28;20790;-81
2021/04/13 12:39:40;;;;;;;0.10;0.10;;;10.10;99.90;;;;;;4976883;28;20205;-80
2021/04/13 12:42:07;;;;;;;0.10;0.10;;;10.20;99.90;;;;;;4975524;28;20210;-81
2021/04/13 12:44:32;;;;;;;0.10;0.10;;;10.50;99.90;;;;;;4994586;28;20191;-80
2021/04/13 12:46:59;;;;;;;0.97;0.93;;;10.50;99.90;;;;;;4992379;28;20226;-82
2021/04/13 12:49:36;;;;;;;0.27;0.23;;;10.20;99.90;;;;;;4976427;28;20219;-82
2021/04/13 12:52:15;;;;;;;0.33;0.33;;;10.00;99.90;;;;;;4992257;28;20197;-82
2021/04/13 12:54:42;;;;;;;1.80;0.73;;;10.30;99.90;;;;;;4976539;28;20193;-82
2021/04/13 12:57:16;;;;;;;0.10;0.10;;;10.10;99.90;;;;;;4970576;28;20209;-82
2021/04/13 12:59:41;;;;;;;0.20;0.20;;;10.00;99.90;;;;;;4973691;28;20232;-82
2021/04/13 13:02:26;;;;;;;0.30;0.30;;;10.50;99.90;;;;;;4991031;28;20658;-81
2021/04/13 13:04:52;;;;;;;0.23;0.23;;;10.30;99.90;;;;;;4992527;28;20179;-81
2021/04/13 13:07:23;;;;;;;0.20;0.20;;;10.20;99.90;;;;;;4975132;28;20223;-82
2021/04/13 13:09:49;;;;;;;0.10;0.10;;;10.30;99.90;;;;;;4975933;28;20819;-82
2021/04/13 13:12:27;;;;;;;0.43;0.43;;;10.30;99.90;;;;;;4992858;28;20273;-81
2021/04/13 13:15:01;;;;;;;0.37;0.17;;;10.40;99.90;;;;;;4992437;28;20195;-81
2021/04/13 13:17:31;;;;;;;0.17;0.17;;;10.70;99.90;;;;;;4992902;28;20573;-81
2021/04/13 13:19:57;;;;;;;0.27;0.27;;;10.00;99.90;;;;;;4972328;28;20298;-82
2021/04/13 13:22:28;;;;;;;0.10;0.10;;;9.50;99.90;;;;;;4974678;28;20289;-82
2021/04/13 13:24:55;;;;;;;0.10;0.10;;;9.50;99.90;;;;;;4976547;28;20282;-81
2021/04/13 13:27:29;;;;;;;0.13;0.13;;;9.70;99.90;;;;;;4976085;28;20190;-81
2021/04/13 13:29:56;;;;;;;0.20;0.20;;;9.60;99.90;;;;;;4979036;28;20201;-81
2021/04/13 13:32:24;;;;;;;0.40;0.30;;;9.60;99.90;;;;;;4981097;28;20207;-80
2021/04/13 13:34:53;;;;;;;0.20;0.20;;;9.30;99.90;;;;;;4984563;28;20407;-81
2021/04/13 13:37:35;;;;;;;0.83;0.20;;;9.20;99.90;;;;;;4988075;28;20557;-81
2021/04/13 13:40:11;;;;;;;0.10;0.10;;;9.60;99.90;;;;;;4972549;28;20214;-81
2021/04/13 13:42:38;;;;;;;0.30;0.10;;;10.10;99.90;;;;;;4979587;28;20654;-81
2021/04/13 13:45:05;;;;;;;0.00;0.00;;;10.70;99.90;;;;;;4973038;28;20288;-81
2021/04/13 13:47:31;;;;;;;0.10;0.10;;;10.50;99.90;;;;;;4991471;28;20254;-81